Terminal Aerodrome Forecast
Issued by NWS Charleston, WV

Home | Current Version | Previous Version | Text Only | Print | Product List | Glossary On
Versions: 1 2 3 4 5 6 7 8 9 10 11 12 13 14 15 16 17 18 19 20 21 22 23
000
FTUS41 KRLX 250500
TAFBKW
TAF
KBKW 250520Z 2506/2606 16011G15KT P6SM BKN250
     FM251300 18013G20KT 5SM -SHRA OVC040
     FM251600 19012G24KT 4SM -SHRA VCTS SCT015CB OVC035
     FM251700 21013G25KT 3SM -SHRA VCTS SCT015CB OVC025
     FM252100 25015G29KT 6SM BR BKN025
     FM260000 29015G29KT P6SM BKN010
     FM260400 30010G15KT P6SM SCT012=

USA.gov is the U.S. government's official web portal to all federal, state and local government web resources and services.